sensor_id;sensor_type;location;lat;lon;timestamp;pressure;altitude;pressure_sealevel;temperature;humidity
77153;BME280;66124;51.146;17.072;2023-05-31T00:01:39;100887.77;;;12.09;55.35
77153;BME280;66124;51.146;17.072;2023-05-31T00:04:08;100893.34;;;12.05;55.44
77153;BME280;66124;51.146;17.072;2023-05-31T00:06:38;100892.04;;;12.01;55.58
77153;BME280;66124;51.146;17.072;2023-05-31T00:09:07;100891.26;;;11.99;55.72
77153;BME280;66124;51.146;17.072;2023-05-31T00:11:36;100892.85;;;11.95;55.73
77153;BME280;66124;51.146;17.072;2023-05-31T00:14:06;100895.61;;;11.92;56.11
77153;BME280;66124;51.146;17.072;2023-05-31T00:16:35;100891.85;;;11.90;56.25
77153;BME280;66124;51.146;17.072;2023-05-31T00:19:05;100893.91;;;11.87;56.31
77153;BME280;66124;51.146;17.072;2023-05-31T00:21:35;100898.19;;;11.84;56.16
77153;BME280;66124;51.146;17.072;2023-05-31T00:24:05;100896.03;;;11.78;56.55
77153;BME280;66124;51.146;17.072;2023-05-31T00:26:34;100896.34;;;11.75;56.60
77153;BME280;66124;51.146;17.072;2023-05-31T00:29:04;100896.81;;;11.71;56.68
77153;BME280;66124;51.146;17.072;2023-05-31T00:31:33;100895.02;;;11.66;57.01
77153;BME280;66124;51.146;17.072;2023-05-31T00:34:03;100894.11;;;11.62;57.06
77153;BME280;66124;51.146;17.072;2023-05-31T00:36:32;100896.00;;;11.56;57.22
77153;BME280;66124;51.146;17.072;2023-05-31T00:39:01;100897.70;;;11.50;57.77
77153;BME280;66124;51.146;17.072;2023-05-31T00:41:31;100897.17;;;11.44;57.97
77153;BME280;66124;51.146;17.072;2023-05-31T00:44:00;100892.90;;;11.38;58.03
77153;BME280;66124;51.146;17.072;2023-05-31T00:46:34;100891.27;;;11.31;58.39
77153;BME280;66124;51.146;17.072;2023-05-31T00:49:03;100889.92;;;11.22;58.82
77153;BME280;66124;51.146;17.072;2023-05-31T00:51:34;100888.87;;;11.15;58.81
77153;BME280;66124;51.146;17.072;2023-05-31T00:54:05;100889.39;;;11.09;59.04
77153;BME280;66124;51.146;17.072;2023-05-31T00:56:35;100891.27;;;11.03;59.18
77153;BME280;66124;51.146;17.072;2023-05-31T00:59:05;100888.66;;;10.98;59.40
77153;BME280;66124;51.146;17.072;2023-05-31T01:07:43;100891.00;;;10.87;60.21
77153;BME280;66124;51.146;17.072;2023-05-31T01:10:13;100891.23;;;10.81;60.58
77153;BME280;66124;51.146;17.072;2023-05-31T01:12:50;100892.45;;;10.78;60.67
77153;BME280;66124;51.146;17.072;2023-05-31T01:15:24;100898.36;;;10.74;60.64
77153;BME280;66124;51.146;17.072;2023-05-31T01:17:59;100902.73;;;10.71;60.87
77153;BME280;66124;51.146;17.072;2023-05-31T01:20:32;100901.62;;;10.68;60.92
77153;BME280;66124;51.146;17.072;2023-05-31T01:23:15;100899.56;;;10.65;61.21
77153;BME280;66124;51.146;17.072;2023-05-31T01:26:05;100904.05;;;10.60;61.29
77153;BME280;66124;51.146;17.072;2023-05-31T01:28:42;100908.70;;;10.58;61.19
77153;BME280;66124;51.146;17.072;2023-05-31T01:31:16;100907.16;;;10.58;61.20
77153;BME280;66124;51.146;17.072;2023-05-31T01:33:47;100905.88;;;10.57;61.17
77153;BME280;66124;51.146;17.072;2023-05-31T01:36:18;100902.85;;;10.55;61.12
77153;BME280;66124;51.146;17.072;2023-05-31T01:38:47;100902.20;;;10.53;61.23
77153;BME280;66124;51.146;17.072;2023-05-31T01:41:17;100900.57;;;10.53;61.16
77153;BME280;66124;51.146;17.072;2023-05-31T01:43:48;100902.52;;;10.51;61.28
77153;BME280;66124;51.146;17.072;2023-05-31T01:46:20;100899.48;;;10.50;61.29
77153;BME280;66124;51.146;17.072;2023-05-31T01:48:50;100902.25;;;10.49;61.35
77153;BME280;66124;51.146;17.072;2023-05-31T01:51:21;100901.09;;;10.48;61.45
77153;BME280;66124;51.146;17.072;2023-05-31T01:53:51;100904.58;;;10.49;61.30
77153;BME280;66124;51.146;17.072;2023-05-31T01:56:22;100905.83;;;10.48;61.44
77153;BME280;66124;51.146;17.072;2023-05-31T01:58:53;100906.23;;;10.48;61.54
77153;BME280;66124;51.146;17.072;2023-05-31T02:01:24;100911.02;;;10.48;61.55
77153;BME280;66124;51.146;17.072;2023-05-31T02:03:53;100911.08;;;10.47;61.59
77153;BME280;66124;51.146;17.072;2023-05-31T02:06:23;100912.16;;;10.47;61.57
77153;BME280;66124;51.146;17.072;2023-05-31T02:08:52;100911.08;;;10.47;61.41
77153;BME280;66124;51.146;17.072;2023-05-31T02:11:22;100908.80;;;10.45;61.51
77153;BME280;66124;51.146;17.072;2023-05-31T02:13:52;100910.92;;;10.43;61.81
77153;BME280;66124;51.146;17.072;2023-05-31T02:16:21;100914.59;;;10.40;61.70
77153;BME280;66124;51.146;17.072;2023-05-31T02:18:49;100914.61;;;10.39;61.69
77153;BME280;66124;51.146;17.072;2023-05-31T02:24:01;100915.95;;;10.37;61.97
77153;BME280;66124;51.146;17.072;2023-05-31T02:26:30;100912.58;;;10.33;61.82
77153;BME280;66124;51.146;17.072;2023-05-31T02:29:00;100917.19;;;10.31;61.92
77153;BME280;66124;51.146;17.072;2023-05-31T02:31:29;100917.25;;;10.29;62.31
77153;BME280;66124;51.146;17.072;2023-05-31T02:33:59;100920.58;;;10.27;62.37
77153;BME280;66124;51.146;17.072;2023-05-31T02:36:29;100919.45;;;10.26;62.48
77153;BME280;66124;51.146;17.072;2023-05-31T02:38:59;100922.19;;;10.25;62.75
77153;BME280;66124;51.146;17.072;2023-05-31T02:41:28;100925.70;;;10.25;62.62
77153;BME280;66124;51.146;17.072;2023-05-31T02:43:57;100928.55;;;10.25;62.84
77153;BME280;66124;51.146;17.072;2023-05-31T02:46:27;100926.23;;;10.23;62.55
77153;BME280;66124;51.146;17.072;2023-05-31T02:48:56;100923.63;;;10.23;62.60
77153;BME280;66124;51.146;17.072;2023-05-31T02:51:26;100927.41;;;10.22;62.70
77153;BME280;66124;51.146;17.072;2023-05-31T02:53:55;100925.92;;;10.21;62.65
77153;BME280;66124;51.146;17.072;2023-05-31T02:56:25;100928.29;;;10.21;62.60
77153;BME280;66124;51.146;17.072;2023-05-31T02:58:54;100926.41;;;10.20;62.80
77153;BME280;66124;51.146;17.072;2023-05-31T03:01:24;100924.17;;;10.20;62.75
77153;BME280;66124;51.146;17.072;2023-05-31T03:03:53;100920.29;;;10.20;62.93
77153;BME280;66124;51.146;17.072;2023-05-31T03:06:23;100923.30;;;10.21;62.79
77153;BME280;66124;51.146;17.072;2023-05-31T03:08:52;100924.35;;;10.23;62.80
77153;BME280;66124;51.146;17.072;2023-05-31T03:11:22;100928.77;;;10.25;62.88
77153;BME280;66124;51.146;17.072;2023-05-31T03:13:51;100929.17;;;10.26;62.62
77153;BME280;66124;51.146;17.072;2023-05-31T03:16:20;100928.16;;;10.27;62.70
77153;BME280;66124;51.146;17.072;2023-05-31T03:18:50;100929.67;;;10.29;62.53
77153;BME280;66124;51.146;17.072;2023-05-31T03:21:19;100928.08;;;10.31;62.62
77153;BME280;66124;51.146;17.072;2023-05-31T03:23:49;100931.67;;;10.34;62.59
77153;BME280;66124;51.146;17.072;2023-05-31T03:26:18;100933.46;;;10.36;62.60
77153;BME280;66124;51.146;17.072;2023-05-31T03:28:48;100932.93;;;10.40;62.40
77153;BME280;66124;51.146;17.072;2023-05-31T03:31:17;100933.73;;;10.44;62.36
77153;BME280;66124;51.146;17.072;2023-05-31T03:33:47;100927.85;;;10.48;62.17
77153;BME280;66124;51.146;17.072;2023-05-31T03:36:14;100925.88;;;10.53;62.48
77153;BME280;66124;51.146;17.072;2023-05-31T03:43:51;100933.71;;;10.76;62.07
77153;BME280;66124;51.146;17.072;2023-05-31T03:46:21;100932.95;;;10.81;61.85
77153;BME280;66124;51.146;17.072;2023-05-31T03:48:50;100936.19;;;10.88;62.37
77153;BME280;66124;51.146;17.072;2023-05-31T03:51:20;100935.83;;;10.95;62.12
77153;BME280;66124;51.146;17.072;2023-05-31T03:53:49;100938.41;;;11.02;62.14
77153;BME280;66124;51.146;17.072;2023-05-31T03:56:20;100934.81;;;11.11;61.62
77153;BME280;66124;51.146;17.072;2023-05-31T03:58:49;100941.23;;;11.19;61.66
77153;BME280;66124;51.146;17.072;2023-05-31T04:01:19;100940.34;;;11.28;61.18
77153;BME280;66124;51.146;17.072;2023-05-31T04:03:48;100935.08;;;11.37;61.06
77153;BME280;66124;51.146;17.072;2023-05-31T04:06:18;100932.08;;;11.47;60.96
77153;BME280;66124;51.146;17.072;2023-05-31T04:08:47;100935.73;;;11.57;61.01
77153;BME280;66124;51.146;17.072;2023-05-31T04:11:16;100939.08;;;11.68;60.48
77153;BME280;66124;51.146;17.072;2023-05-31T04:13:46;100941.77;;;11.78;60.61
77153;BME280;66124;51.146;17.072;2023-05-31T04:16:15;100942.27;;;11.90;60.54
77153;BME280;66124;51.146;17.072;2023-05-31T04:18:45;100946.76;;;12.02;60.83
77153;BME280;66124;51.146;17.072;2023-05-31T04:21:14;100944.29;;;12.14;60.77
77153;BME280;66124;51.146;17.072;2023-05-31T04:23:44;100943.61;;;12.26;60.65
77153;BME280;66124;51.146;17.072;2023-05-31T04:26:13;100945.13;;;12.39;60.52
77153;BME280;66124;51.146;17.072;2023-05-31T04:28:43;100942.81;;;12.51;60.51
77153;BME280;66124;51.146;17.072;2023-05-31T04:31:13;100940.99;;;12.63;60.24
77153;BME280;66124;51.146;17.072;2023-05-31T04:33:42;100944.20;;;12.75;60.14
77153;BME280;66124;51.146;17.072;2023-05-31T04:36:12;100942.59;;;12.87;59.87
77153;BME280;66124;51.146;17.072;2023-05-31T04:38:41;100939.72;;;12.99;59.53
77153;BME280;66124;51.146;17.072;2023-05-31T04:41:10;100940.83;;;13.13;59.22
77153;BME280;66124;51.146;17.072;2023-05-31T04:43:40;100939.09;;;13.26;59.16
77153;BME280;66124;51.146;17.072;2023-05-31T04:46:09;100943.52;;;13.40;58.86
77153;BME280;66124;51.146;17.072;2023-05-31T04:48:39;100940.77;;;13.52;58.67
77153;BME280;66124;51.146;17.072;2023-05-31T04:51:08;100946.09;;;13.65;58.46
77153;BME280;66124;51.146;17.072;2023-05-31T04:53:37;100949.14;;;13.79;58.24
77153;BME280;66124;51.146;17.072;2023-05-31T04:56:06;100947.83;;;13.94;57.64
77153;BME280;66124;51.146;17.072;2023-05-31T05:03:03;100944.03;;;14.36;56.90
77153;BME280;66124;51.146;17.072;2023-05-31T05:05:32;100947.95;;;14.50;56.44
77153;BME280;66124;51.146;17.072;2023-05-31T05:08:02;100951.70;;;14.64;56.32
77153;BME280;66124;51.146;17.072;2023-05-31T05:10:31;100953.64;;;14.79;56.03
77153;BME280;66124;51.146;17.072;2023-05-31T05:13:01;100955.01;;;14.92;55.71
77153;BME280;66124;51.146;17.072;2023-05-31T05:15:31;100955.95;;;15.05;55.42
77153;BME280;66124;51.146;17.072;2023-05-31T05:18:01;100954.40;;;15.19;55.14
77153;BME280;66124;51.146;17.072;2023-05-31T05:20:31;100952.81;;;15.34;54.94
77153;BME280;66124;51.146;17.072;2023-05-31T05:23:00;100951.32;;;15.49;54.56
77153;BME280;66124;51.146;17.072;2023-05-31T05:25:30;100941.04;;;15.63;54.47
77153;BME280;66124;51.146;17.072;2023-05-31T05:27:59;100944.55;;;15.75;53.86
77153;BME280;66124;51.146;17.072;2023-05-31T05:30:28;100946.27;;;15.87;53.56
77153;BME280;66124;51.146;17.072;2023-05-31T05:32:58;100944.23;;;15.98;53.29
77153;BME280;66124;51.146;17.072;2023-05-31T05:35:27;100931.08;;;16.03;53.11
77153;BME280;66124;51.146;17.072;2023-05-31T05:37:56;100943.98;;;16.23;52.79
77153;BME280;66124;51.146;17.072;2023-05-31T05:40:26;100944.87;;;16.38;52.53
77153;BME280;66124;51.146;17.072;2023-05-31T05:42:56;100940.59;;;16.52;52.05
77153;BME280;66124;51.146;17.072;2023-05-31T05:45:25;100941.54;;;16.66;51.71
77153;BME280;66124;51.146;17.072;2023-05-31T05:47:54;100942.31;;;16.79;51.32
77153;BME280;66124;51.146;17.072;2023-05-31T05:50:24;100942.86;;;16.91;50.90
77153;BME280;66124;51.146;17.072;2023-05-31T05:52:53;100945.26;;;17.01;50.15
77153;BME280;66124;51.146;17.072;2023-05-31T05:55:23;100949.28;;;17.09;49.86
77153;BME280;66124;51.146;17.072;2023-05-31T05:57:52;100951.70;;;17.17;49.52
77153;BME280;66124;51.146;17.072;2023-05-31T06:00:22;100951.38;;;17.26;49.49
77153;BME280;66124;51.146;17.072;2023-05-31T06:02:52;100954.20;;;17.34;49.23
77153;BME280;66124;51.146;17.072;2023-05-31T06:05:21;100953.80;;;17.44;49.40
77153;BME280;66124;51.146;17.072;2023-05-31T06:07:51;100957.39;;;17.56;49.12
77153;BME280;66124;51.146;17.072;2023-05-31T06:10:19;100956.84;;;17.69;48.86
77153;BME280;66124;51.146;17.072;2023-05-31T06:12:48;100951.35;;;17.83;48.31
77153;BME280;66124;51.146;17.072;2023-05-31T06:22:58;100951.04;;;18.33;47.04
77153;BME280;66124;51.146;17.072;2023-05-31T06:25:27;100949.35;;;18.41;46.73
77153;BME280;66124;51.146;17.072;2023-05-31T06:27:57;100939.19;;;18.42;46.58
77153;BME280;66124;51.146;17.072;2023-05-31T06:30:26;100955.41;;;18.61;46.39
77153;BME280;66124;51.146;17.072;2023-05-31T06:32:55;100954.19;;;18.72;46.29
77153;BME280;66124;51.146;17.072;2023-05-31T06:35:26;100953.77;;;18.81;45.83
77153;BME280;66124;51.146;17.072;2023-05-31T06:37:56;100958.61;;;18.95;45.32
77153;BME280;66124;51.146;17.072;2023-05-31T06:40:25;100957.55;;;19.06;45.02
77153;BME280;66124;51.146;17.072;2023-05-31T06:42:54;100955.80;;;19.15;44.82
77153;BME280;66124;51.146;17.072;2023-05-31T06:45:24;100958.63;;;19.22;44.72
77153;BME280;66124;51.146;17.072;2023-05-31T06:47:54;100952.92;;;19.30;44.27
77153;BME280;66124;51.146;17.072;2023-05-31T06:50:23;100952.89;;;19.35;44.21
77153;BME280;66124;51.146;17.072;2023-05-31T06:52:53;100944.84;;;19.40;44.15
77153;BME280;66124;51.146;17.072;2023-05-31T06:55:22;100947.66;;;19.48;43.96
77153;BME280;66124;51.146;17.072;2023-05-31T06:57:52;100948.75;;;19.57;43.63
77153;BME280;66124;51.146;17.072;2023-05-31T07:00:21;100944.73;;;19.69;43.41
77153;BME280;66124;51.146;17.072;2023-05-31T07:02:51;100944.67;;;19.79;43.22
77153;BME280;66124;51.146;17.072;2023-05-31T07:05:20;100944.14;;;19.86;43.13
77153;BME280;66124;51.146;17.072;2023-05-31T07:07:50;100939.09;;;19.93;42.87
77153;BME280;66124;51.146;17.072;2023-05-31T07:10:20;100940.40;;;20.01;42.85
77153;BME280;66124;51.146;17.072;2023-05-31T07:12:49;100940.86;;;20.10;42.64
77153;BME280;66124;51.146;17.072;2023-05-31T07:15:18;100937.45;;;20.17;42.47
77153;BME280;66124;51.146;17.072;2023-05-31T07:17:48;100938.02;;;20.22;42.22
77153;BME280;66124;51.146;17.072;2023-05-31T07:20:18;100936.52;;;20.25;42.05
77153;BME280;66124;51.146;17.072;2023-05-31T07:22:47;100937.20;;;20.27;42.06
77153;BME280;66124;51.146;17.072;2023-05-31T07:25:16;100936.98;;;20.32;41.77
77153;BME280;66124;51.146;17.072;2023-05-31T07:27:46;100931.24;;;20.38;41.54
77153;BME280;66124;51.146;17.072;2023-05-31T07:30:16;100930.71;;;20.44;41.44
77153;BME280;66124;51.146;17.072;2023-05-31T07:32:45;100929.67;;;20.47;41.26
77153;BME280;66124;51.146;17.072;2023-05-31T07:35:13;100931.71;;;20.51;40.97
77153;BME280;66124;51.146;17.072;2023-05-31T07:42:41;100928.19;;;20.65;40.78
77153;BME280;66124;51.146;17.072;2023-05-31T07:45:11;100923.13;;;20.70;40.83
77153;BME280;66124;51.146;17.072;2023-05-31T07:47:41;100928.52;;;20.76;40.83
77153;BME280;66124;51.146;17.072;2023-05-31T07:50:10;100924.02;;;20.80;40.84
77153;BME280;66124;51.146;17.072;2023-05-31T07:52:40;100926.77;;;20.85;40.44
77153;BME280;66124;51.146;17.072;2023-05-31T07:55:10;100921.63;;;20.91;40.18
77153;BME280;66124;51.146;17.072;2023-05-31T07:57:39;100919.92;;;20.96;40.00
77153;BME280;66124;51.146;17.072;2023-05-31T08:00:11;100918.70;;;21.00;39.70
77153;BME280;66124;51.146;17.072;2023-05-31T08:02:38;100917.80;;;21.03;39.25
77153;BME280;66124;51.146;17.072;2023-05-31T08:05:09;100916.77;;;20.96;38.83
77153;BME280;66124;51.146;17.072;2023-05-31T08:07:38;100916.06;;;20.89;38.63
77153;BME280;66124;51.146;17.072;2023-05-31T08:10:09;100911.07;;;20.87;38.67
77153;BME280;66124;51.146;17.072;2023-05-31T08:12:38;100910.23;;;20.90;38.64
77153;BME280;66124;51.146;17.072;2023-05-31T08:15:10;100908.39;;;20.93;38.48
77153;BME280;66124;51.146;17.072;2023-05-31T08:17:40;100910.29;;;20.92;38.48
77153;BME280;66124;51.146;17.072;2023-05-31T08:20:10;100911.29;;;20.92;38.49
77153;BME280;66124;51.146;17.072;2023-05-31T08:22:40;100906.57;;;20.91;38.35
77153;BME280;66124;51.146;17.072;2023-05-31T08:25:11;100910.29;;;20.92;38.29
77153;BME280;66124;51.146;17.072;2023-05-31T08:27:40;100907.85;;;20.93;37.85
77153;BME280;66124;51.146;17.072;2023-05-31T08:30:11;100906.05;;;20.94;37.82
77153;BME280;66124;51.146;17.072;2023-05-31T08:32:41;100904.29;;;20.99;37.69
77153;BME280;66124;51.146;17.072;2023-05-31T08:35:10;100903.22;;;21.05;37.72
77153;BME280;66124;51.146;17.072;2023-05-31T08:37:40;100902.01;;;21.12;37.39
77153;BME280;66124;51.146;17.072;2023-05-31T08:40:10;100904.58;;;21.16;37.18
77153;BME280;66124;51.146;17.072;2023-05-31T08:42:42;100905.56;;;21.19;37.11
77153;BME280;66124;51.146;17.072;2023-05-31T08:45:13;100907.40;;;21.22;37.03
77153;BME280;66124;51.146;17.072;2023-05-31T08:47:45;100906.96;;;21.26;36.80
77153;BME280;66124;51.146;17.072;2023-05-31T08:50:16;100907.73;;;21.27;36.79
77153;BME280;66124;51.146;17.072;2023-05-31T08:52:44;100904.44;;;21.24;36.44
77153;BME280;66124;51.146;17.072;2023-05-31T08:55:13;100903.25;;;21.26;36.27
77153;BME280;66124;51.146;17.072;2023-05-31T09:03:43;100903.33;;;21.42;36.13
77153;BME280;66124;51.146;17.072;2023-05-31T09:06:11;100905.88;;;21.48;36.18
77153;BME280;66124;51.146;17.072;2023-05-31T09:08:38;100903.55;;;21.55;35.84
77153;BME280;66124;51.146;17.072;2023-05-31T09:11:06;100900.05;;;21.62;35.58
77153;BME280;66124;51.146;17.072;2023-05-31T09:13:34;100893.23;;;21.66;35.72
77153;BME280;66124;51.146;17.072;2023-05-31T09:16:02;100896.30;;;21.70;35.72
77153;BME280;66124;51.146;17.072;2023-05-31T09:18:37;100896.21;;;21.70;35.74
77153;BME280;66124;51.146;17.072;2023-05-31T09:21:09;100895.33;;;21.74;35.58
77153;BME280;66124;51.146;17.072;2023-05-31T09:23:36;100894.00;;;21.79;35.16
77153;BME280;66124;51.146;17.072;2023-05-31T09:33:13;100883.98;;;22.08;34.92
77153;BME280;66124;51.146;17.072;2023-05-31T09:35:56;100883.39;;;22.10;35.30
77153;BME280;66124;51.146;17.072;2023-05-31T09:38:34;100882.65;;;22.13;35.22
77153;BME280;66124;51.146;17.072;2023-05-31T09:41:14;100880.56;;;22.16;34.89
77153;BME280;66124;51.146;17.072;2023-05-31T09:43:46;100882.20;;;22.15;34.81
77153;BME280;66124;51.146;17.072;2023-05-31T09:46:17;100882.32;;;22.13;34.66
77153;BME280;66124;51.146;17.072;2023-05-31T09:48:56;100877.45;;;22.11;34.59
77153;BME280;66124;51.146;17.072;2023-05-31T09:51:27;100876.50;;;22.10;34.44
77153;BME280;66124;51.146;17.072;2023-05-31T09:53:57;100875.95;;;22.09;34.29
77153;BME280;66124;51.146;17.072;2023-05-31T09:56:27;100872.63;;;22.07;34.15
77153;BME280;66124;51.146;17.072;2023-05-31T09:58:58;100872.02;;;22.06;34.22
77153;BME280;66124;51.146;17.072;2023-05-31T10:01:30;100867.64;;;22.07;34.23
77153;BME280;66124;51.146;17.072;2023-05-31T10:04:00;100862.27;;;22.11;33.96
77153;BME280;66124;51.146;17.072;2023-05-31T10:06:31;100861.20;;;22.18;33.99
77153;BME280;66124;51.146;17.072;2023-05-31T10:09:01;100857.44;;;22.27;34.00
77153;BME280;66124;51.146;17.072;2023-05-31T10:11:34;100853.32;;;22.28;33.87
77153;BME280;66124;51.146;17.072;2023-05-31T10:14:06;100850.80;;;22.23;33.72
77153;BME280;66124;51.146;17.072;2023-05-31T10:16:50;100848.45;;;22.20;33.65
77153;BME280;66124;51.146;17.072;2023-05-31T10:19:22;100845.96;;;22.22;33.93
77153;BME280;66124;51.146;17.072;2023-05-31T10:21:53;100847.73;;;22.27;33.92
77153;BME280;66124;51.146;17.072;2023-05-31T10:24:28;100841.39;;;22.34;33.91
77153;BME280;66124;51.146;17.072;2023-05-31T10:27:02;100836.93;;;22.43;34.09
77153;BME280;66124;51.146;17.072;2023-05-31T10:29:38;100837.04;;;22.52;33.87
77153;BME280;66124;51.146;17.072;2023-05-31T10:32:13;100837.34;;;22.61;33.74
77153;BME280;66124;51.146;17.072;2023-05-31T10:34:45;100843.08;;;22.70;33.85
77153;BME280;66124;51.146;17.072;2023-05-31T10:37:15;100840.63;;;22.78;33.78
77153;BME280;66124;51.146;17.072;2023-05-31T10:39:49;100839.35;;;22.82;33.55
77153;BME280;66124;51.146;17.072;2023-05-31T10:42:27;100838.77;;;22.80;33.28
77153;BME280;66124;51.146;17.072;2023-05-31T10:44:59;100845.48;;;22.79;33.23
77153;BME280;66124;51.146;17.072;2023-05-31T10:52:37;100824.77;;;23.24;32.98
77153;BME280;66124;51.146;17.072;2023-05-31T10:55:21;100831.34;;;23.46;32.66
77153;BME280;66124;51.146;17.072;2023-05-31T10:57:56;100822.39;;;23.70;32.19
77153;BME280;66124;51.146;17.072;2023-05-31T11:00:26;100817.43;;;23.92;31.81
77153;BME280;66124;51.146;17.072;2023-05-31T11:02:58;100814.73;;;24.14;31.66
77153;BME280;66124;51.146;17.072;2023-05-31T11:05:28;100812.71;;;24.33;31.16
77153;BME280;66124;51.146;17.072;2023-05-31T11:07:59;100808.58;;;24.52;31.05
77153;BME280;66124;51.146;17.072;2023-05-31T11:10:30;100804.90;;;24.76;30.80
77153;BME280;66124;51.146;17.072;2023-05-31T11:13:03;100799.77;;;25.01;30.53
77153;BME280;66124;51.146;17.072;2023-05-31T11:15:44;100796.67;;;25.27;30.23
77153;BME280;66124;51.146;17.072;2023-05-31T11:18:22;100792.24;;;25.55;29.84
77153;BME280;66124;51.146;17.072;2023-05-31T11:20:52;100793.42;;;25.81;29.60
77153;BME280;66124;51.146;17.072;2023-05-31T11:23:28;100792.77;;;26.10;29.32
77153;BME280;66124;51.146;17.072;2023-05-31T11:26:16;100792.43;;;26.49;29.16
77153;BME280;66124;51.146;17.072;2023-05-31T11:28:55;100782.11;;;26.86;28.35
77153;BME280;66124;51.146;17.072;2023-05-31T11:31:57;100779.20;;;27.09;27.91
77153;BME280;66124;51.146;17.072;2023-05-31T11:34:27;100778.03;;;27.21;27.32
77153;BME280;66124;51.146;17.072;2023-05-31T11:37:02;100777.18;;;27.37;27.25
77153;BME280;66124;51.146;17.072;2023-05-31T11:39:32;100776.99;;;27.58;27.11
77153;BME280;66124;51.146;17.072;2023-05-31T11:42:04;100781.61;;;27.77;26.26
77153;BME280;66124;51.146;17.072;2023-05-31T11:44:35;100777.18;;;27.86;26.13
77153;BME280;66124;51.146;17.072;2023-05-31T11:47:11;100776.98;;;28.13;26.20
77153;BME280;66124;51.146;17.072;2023-05-31T11:49:45;100771.52;;;28.49;25.82
77153;BME280;66124;51.146;17.072;2023-05-31T11:52:18;100774.39;;;28.92;25.22
77153;BME280;66124;51.146;17.072;2023-05-31T11:54:49;100771.40;;;29.38;24.69
77153;BME280;66124;51.146;17.072;2023-05-31T11:57:19;100767.29;;;29.84;24.37
77153;BME280;66124;51.146;17.072;2023-05-31T11:59:48;100774.15;;;30.45;23.69
77153;BME280;66124;51.146;17.072;2023-05-31T12:02:18;100769.98;;;31.11;22.92
77153;BME280;66124;51.146;17.072;2023-05-31T12:04:45;100765.89;;;31.72;22.37
77153;BME280;66124;51.146;17.072;2023-05-31T12:12:47;100762.13;;;32.80;20.54
77153;BME280;66124;51.146;17.072;2023-05-31T12:15:17;100762.74;;;32.88;20.18
77153;BME280;66124;51.146;17.072;2023-05-31T12:17:47;100753.04;;;33.01;19.93
77153;BME280;66124;51.146;17.072;2023-05-31T12:20:16;100746.36;;;33.33;19.74
77153;BME280;66124;51.146;17.072;2023-05-31T12:22:46;100744.49;;;33.70;19.43
77153;BME280;66124;51.146;17.072;2023-05-31T12:25:15;100746.84;;;34.07;19.32
77153;BME280;66124;51.146;17.072;2023-05-31T12:27:45;100742.45;;;34.52;19.05
77153;BME280;66124;51.146;17.072;2023-05-31T12:30:20;100741.77;;;35.22;18.87
77153;BME280;66124;51.146;17.072;2023-05-31T12:32:49;100731.20;;;35.85;18.04
77153;BME280;66124;51.146;17.072;2023-05-31T12:35:19;100731.23;;;35.98;17.51
77153;BME280;66124;51.146;17.072;2023-05-31T12:37:51;100731.08;;;36.02;17.42
77153;BME280;66124;51.146;17.072;2023-05-31T12:40:21;100730.21;;;36.15;17.48
77153;BME280;66124;51.146;17.072;2023-05-31T12:42:50;100725.15;;;36.40;17.38
77153;BME280;66124;51.146;17.072;2023-05-31T12:45:28;100724.27;;;36.80;16.87
77153;BME280;66124;51.146;17.072;2023-05-31T12:48:02;100725.06;;;36.90;16.39
77153;BME280;66124;51.146;17.072;2023-05-31T12:50:32;100720.64;;;36.98;16.76
77153;BME280;66124;51.146;17.072;2023-05-31T12:53:01;100714.58;;;37.40;16.28
77153;BME280;66124;51.146;17.072;2023-05-31T12:55:34;100712.05;;;37.89;15.73
77153;BME280;66124;51.146;17.072;2023-05-31T12:58:03;100712.25;;;38.15;15.43
77153;BME280;66124;51.146;17.072;2023-05-31T13:00:33;100707.96;;;38.36;15.40
77153;BME280;66124;51.146;17.072;2023-05-31T13:03:03;100707.38;;;38.68;15.04
77153;BME280;66124;51.146;17.072;2023-05-31T13:05:32;100706.29;;;38.74;14.88
77153;BME280;66124;51.146;17.072;2023-05-31T13:08:02;100705.92;;;38.84;14.94
77153;BME280;66124;51.146;17.072;2023-05-31T13:10:31;100707.88;;;39.16;14.07
77153;BME280;66124;51.146;17.072;2023-05-31T13:13:01;100701.72;;;39.36;13.84
77153;BME280;66124;51.146;17.072;2023-05-31T13:15:30;100696.13;;;39.47;13.42
77153;BME280;66124;51.146;17.072;2023-05-31T13:17:59;100691.63;;;39.58;13.60
77153;BME280;66124;51.146;17.072;2023-05-31T13:20:27;100693.18;;;39.70;13.29
77153;BME280;66124;51.146;17.072;2023-05-31T13:22:55;100686.55;;;39.63;13.18
77153;BME280;66124;51.146;17.072;2023-05-31T13:25:24;100682.05;;;39.67;13.37
77153;BME280;66124;51.146;17.072;2023-05-31T13:30:37;100677.71;;;40.19;13.09
77153;BME280;66124;51.146;17.072;2023-05-31T13:33:06;100678.11;;;40.53;12.86
77153;BME280;66124;51.146;17.072;2023-05-31T13:35:36;100673.00;;;40.68;12.77
77153;BME280;66124;51.146;17.072;2023-05-31T13:38:05;100670.54;;;40.91;12.68
77153;BME280;66124;51.146;17.072;2023-05-31T13:40:35;100667.60;;;41.23;12.34
77153;BME280;66124;51.146;17.072;2023-05-31T13:43:05;100664.46;;;41.28;12.18
77153;BME280;66124;51.146;17.072;2023-05-31T13:45:33;100655.61;;;41.54;12.14
77153;BME280;66124;51.146;17.072;2023-05-31T13:48:02;100657.34;;;41.85;12.18
77153;BME280;66124;51.146;17.072;2023-05-31T13:50:32;100650.55;;;42.08;12.00
77153;BME280;66124;51.146;17.072;2023-05-31T13:53:01;100649.77;;;42.15;11.79
77153;BME280;66124;51.146;17.072;2023-05-31T13:55:31;100648.86;;;42.29;11.56